Relevés horaires Bouveret (Suisse)


Relevés horaires à Bouveret - Mardi 17 Janv. 2023
Heure UTC1 Température [°C] Vent [km/h] Hum. [%] Pres.4 [hPa] Visi. [Km] Nébu. [octa] Préc.5 [mm] Cond.
2m. Res. Ros. Dir.2 Vit. Moy. Raf.3
23:00 1.4 -3 1.0 SE 16.7 -- 29.6 97 990.6(2.1/3h) -- -- -- --
22:00 2.5 0.4 0.7 SSO 7.4 -- 31.5 88 990.3(2.0/3h) -- -- -- --
21:00 3.5 -0.6 0.7 SSE 18.5 -- 44.4 82 988.6(0.5/3h) -- -- -- --
20:00 2.1 -2.6 0.9 SE 20.4 -- 31.5 92 988.3(0.7/3h) -- -- -- --
19:00 3.8 0.3 0.2 SE 14.8 -- 40.7 77 988(0.4/3h) -- -- -- --
18:00 2.6 -2.5 0.8 SE 24.1 -- 46.3 88 988.2(1.5/3h) -- -- -- --
17:00 1.6 -2.7 1.1 SE 16.7 -- 29.6 96 987.7(0.5/3h) -- -- -- --
16:00 2.5 -1 1.4 N 13.0 -- 44.4 92 987.8(2.2/3h) -- -- -- --
15:00 1.2 -2.1 1.0 SE 11.1 -- 46.3 99 986.9(0.6/3h) -- -- -- --
14:00 1.5 -3.1 1.0 ONO 18.5 -- 46.3 96 987.2(0.6/3h) -- -- -- --
13:00 1.4 -3 0.8 SE 16.7 -- 25.9 96 985.7(-1.5/3h) -- -- -- --
12:00 2.4 -2.3 0.8 S 20.4 -- 50.0 89 986.1(-1.2/3h) -- -- -- --
11:00 3.3 -1.4 -0.4 SSE 22.2 -- 44.4 77 986.2(-1.4/3h) -- -- -- --
10:00 3.4 -0.8 -0.2 SSE 18.5 -- 50.0 77 986.9(-1.2/3h) -- -- -- --
09:00 1.4 -4.4 0.7 SSE 27.8 -- 46.3 95 987.5(-1.6/3h) -- -- -- --
08:00 2.0 -2.5 0.1 SE 18.5 -- 35.2 87 987.9(-1.6/3h) -- -- -- --
07:00 2.3 -1.5 -0.4 SE 14.8 -- 27.8 82 988.4(-1.8/3h) -- -- -- --
06:00 2.5 -1.6 -0.2 SE 16.7 -- 35.2 82 989(-2.8/3h) -- -- -- --
05:00 2.3 -1.9 -- SE 16.7 -- 35.2 -- 989.5(-3.5/3h) -- -- -- --
04:00 1.7 -3.2 0.8 SSE 20.4 -- 35.2 94 990.4(-4.0/3h) -- -- -- --
03:00 1.0 -3.1 0.7 SE 14.8 -- 31.5 98 992.2(-2.6/3h) -- -- -- --
02:00 1.1 -3 0.8 SE 14.8 -- 27.8 98 993.4(-1.5/3h) -- -- -- --
01:00 2.0 -0.7 1.4 SE 9.3 -- 31.5 96 994.5(-0.7/3h) -- -- -- --
00:00 3.4 -1.4 2.4 ONO 24.1 -- 50.0 93 994.5(-0.9/3h) -- -- -- --

1 Coordinated Universal Time. Actuellement il est 17:00 locale et 15:00 UTC.

2 Le vent souffle depuis la direction indiquée vers la direction oposée.

3 Les rafales max. sont disponible 40 min après l'heure du relevé.

4 Pour les stations d'altitude (plus de 600m) le géopotentiel du niveau le plus proche de la pression obligatoire est indiqué.

5 Les stations disposant d'un diffuseur peuvent indiquer "trace". Cela signifie que des précipitations ont touchés le sol mais que la quantité est inférieure à 0.1 mm.

Copyright

Les données affichées sur cette page sont la propriété exclusive de Météo Suisse.

Récapitulatif de la journée
Température [°C] Vent [km/h] Ensoleillement4 [h] Precipitations totale5 [mm] Pression [Hpa]
Min1 Max.2 Moy.3 Max. Min Max.
1.0 3.4 0 50.0 0 h 0 min 0 985.7 994.5

1 Température minimale relevée entre 18:00 UTC la veille et 18:00 UTC le jour donné.

2 Température maximale relevée entre 06:00 UTC le jour donné et 06:00 UTC le lendemain.

3 Vent moyen de la journée basé sur les relevés horaires.

4 Ensoleillement en heures relevé entre 06:00 UTC la veille et 06:00 UTC le jour donné.

5 Précipitations totales tombées entre 06:00 UTC la jour donné et 06:00 UTC le lendemain.

Graphiques horaires